Searsburg, Vermont
Current Conditions -  °F | °C
As of 4:54 PM on Sunday 25 Jan 2015 (Local Time) from KDDH Reporting Station
Clear Clear  
Wind Chill: 10°   Ceiling: Unl
Heat Index: 20°   Visibility: 10mi
Dew Point:   Wind: 8mph
Humidity: 48%   Direction: 270°W
Pressure: 29.83"   Gusts: NA
Location:  42.883°N, 72.8981°W
Report Text: KDDH 252154Z AUTO 27007KT 10SM CLR M07/M16 A2983 RMK AO2 SLP113 T10671161
Loading
Personal Weather Stations






























Interactive Weather Map New forecast layout! Learn more

10-Day Weather Forecast

Advertisements
Track Severe Weather on mobile